sensor_id;sensor_type;location;lat;lon;timestamp;P1;durP1;ratioP1;P2;durP2;ratioP2
64199;SDS011;50516;52.272;5.136;2024-03-02T00:00:18;3.38;;;2.08;;
64199;SDS011;50516;52.272;5.136;2024-03-02T00:02:47;6.18;;;2.80;;
64199;SDS011;50516;52.272;5.136;2024-03-02T00:07:44;8.60;;;2.65;;
64199;SDS011;50516;52.272;5.136;2024-03-02T00:10:13;4.53;;;2.10;;
64199;SDS011;50516;52.272;5.136;2024-03-02T00:12:42;3.45;;;2.10;;
64199;SDS011;50516;52.272;5.136;2024-03-02T00:18:03;3.55;;;1.98;;
64199;SDS011;50516;52.272;5.136;2024-03-02T00:20:29;6.15;;;2.13;;
64199;SDS011;50516;52.272;5.136;2024-03-02T00:23:03;6.80;;;2.65;;
64199;SDS011;50516;52.272;5.136;2024-03-02T00:25:37;3.65;;;2.05;;
64199;SDS011;50516;52.272;5.136;2024-03-02T00:33:23;1.15;;;0.98;;
64199;SDS011;50516;52.272;5.136;2024-03-02T00:35:52;0.80;;;0.80;;
64199;SDS011;50516;52.272;5.136;2024-03-02T00:38:18;0.80;;;0.80;;
64199;SDS011;50516;52.272;5.136;2024-03-02T00:40:44;3.58;;;1.00;;
64199;SDS011;50516;52.272;5.136;2024-03-02T00:46:12;1.42;;;0.68;;
64199;SDS011;50516;52.272;5.136;2024-03-02T00:48:42;1.67;;;0.98;;
64199;SDS011;50516;52.272;5.136;2024-03-02T00:51:17;1.13;;;0.82;;
64199;SDS011;50516;52.272;5.136;2024-03-02T00:53:43;2.28;;;1.15;;
64199;SDS011;50516;52.272;5.136;2024-03-02T00:56:09;3.10;;;2.00;;
64199;SDS011;50516;52.272;5.136;2024-03-02T00:58:35;1.85;;;1.25;;
64199;SDS011;50516;52.272;5.136;2024-03-02T01:01:01;1.80;;;1.20;;
64199;SDS011;50516;52.272;5.136;2024-03-02T01:03:26;0.70;;;0.70;;
64199;SDS011;50516;52.272;5.136;2024-03-02T01:05:52;0.85;;;0.70;;
64199;SDS011;50516;52.272;5.136;2024-03-02T01:08:17;1.35;;;0.65;;
64199;SDS011;50516;52.272;5.136;2024-03-02T01:10:43;0.85;;;0.77;;
64199;SDS011;50516;52.272;5.136;2024-03-02T01:13:08;1.75;;;0.47;;
64199;SDS011;50516;52.272;5.136;2024-03-02T01:15:34;0.93;;;0.40;;
64199;SDS011;50516;52.272;5.136;2024-03-02T01:17:59;0.63;;;0.63;;
64199;SDS011;50516;52.272;5.136;2024-03-02T01:20:25;0.47;;;0.47;;
64199;SDS011;50516;52.272;5.136;2024-03-02T01:22:50;0.70;;;0.57;;
64199;SDS011;50516;52.272;5.136;2024-03-02T01:25:16;0.80;;;0.63;;
64199;SDS011;50516;52.272;5.136;2024-03-02T01:27:41;0.63;;;0.45;;
64199;SDS011;50516;52.272;5.136;2024-03-02T01:30:06;1.50;;;1.00;;
64199;SDS011;50516;52.272;5.136;2024-03-02T01:32:32;1.50;;;0.70;;
64199;SDS011;50516;52.272;5.136;2024-03-02T01:34:57;0.98;;;0.50;;
64199;SDS011;50516;52.272;5.136;2024-03-02T01:37:23;1.25;;;0.75;;
64199;SDS011;50516;52.272;5.136;2024-03-02T01:39:48;0.80;;;0.77;;
64199;SDS011;50516;52.272;5.136;2024-03-02T01:42:13;1.20;;;0.80;;
64199;SDS011;50516;52.272;5.136;2024-03-02T01:44:39;1.00;;;0.80;;
64199;SDS011;50516;52.272;5.136;2024-03-02T01:47:05;1.80;;;0.98;;
64199;SDS011;50516;52.272;5.136;2024-03-02T01:49:30;1.70;;;0.77;;
64199;SDS011;50516;52.272;5.136;2024-03-02T01:51:57;1.20;;;0.90;;
64199;SDS011;50516;52.272;5.136;2024-03-02T01:54:23;2.15;;;1.05;;
64199;SDS011;50516;52.272;5.136;2024-03-02T01:56:48;2.75;;;1.15;;
64199;SDS011;50516;52.272;5.136;2024-03-02T01:59:13;1.17;;;0.75;;
64199;SDS011;50516;52.272;5.136;2024-03-02T02:01:39;2.25;;;1.17;;
64199;SDS011;50516;52.272;5.136;2024-03-02T02:04:04;1.50;;;1.25;;
64199;SDS011;50516;52.272;5.136;2024-03-02T02:06:31;1.58;;;1.10;;
64199;SDS011;50516;52.272;5.136;2024-03-02T02:08:56;1.35;;;0.80;;
64199;SDS011;50516;52.272;5.136;2024-03-02T02:11:22;1.10;;;1.00;;
64199;SDS011;50516;52.272;5.136;2024-03-02T02:13:47;1.73;;;0.93;;
64199;SDS011;50516;52.272;5.136;2024-03-02T02:16:13;1.23;;;1.05;;
64199;SDS011;50516;52.272;5.136;2024-03-02T02:18:38;2.33;;;0.90;;
64199;SDS011;50516;52.272;5.136;2024-03-02T02:21:03;1.85;;;0.90;;
64199;SDS011;50516;52.272;5.136;2024-03-02T02:23:29;1.45;;;1.15;;
64199;SDS011;50516;52.272;5.136;2024-03-02T02:25:54;0.98;;;0.85;;
64199;SDS011;50516;52.272;5.136;2024-03-02T02:28:20;2.05;;;1.60;;
64199;SDS011;50516;52.272;5.136;2024-03-02T02:30:45;1.35;;;0.98;;
64199;SDS011;50516;52.272;5.136;2024-03-02T02:33:11;3.28;;;1.13;;
64199;SDS011;50516;52.272;5.136;2024-03-02T02:35:36;1.55;;;1.00;;
64199;SDS011;50516;52.272;5.136;2024-03-02T02:38:01;1.10;;;1.00;;
64199;SDS011;50516;52.272;5.136;2024-03-02T02:40:28;3.28;;;1.52;;
64199;SDS011;50516;52.272;5.136;2024-03-02T02:42:55;2.60;;;1.30;;
64199;SDS011;50516;52.272;5.136;2024-03-02T02:45:21;1.60;;;0.93;;
64199;SDS011;50516;52.272;5.136;2024-03-02T02:47:46;2.38;;;1.50;;
64199;SDS011;50516;52.272;5.136;2024-03-02T02:50:12;2.35;;;1.60;;
64199;SDS011;50516;52.272;5.136;2024-03-02T02:52:38;2.90;;;1.08;;
64199;SDS011;50516;52.272;5.136;2024-03-02T02:55:06;2.45;;;1.40;;
64199;SDS011;50516;52.272;5.136;2024-03-02T02:57:33;1.75;;;1.05;;
64199;SDS011;50516;52.272;5.136;2024-03-02T03:00:06;1.13;;;0.90;;
64199;SDS011;50516;52.272;5.136;2024-03-02T03:02:38;1.38;;;1.02;;
64199;SDS011;50516;52.272;5.136;2024-03-02T03:05:04;1.35;;;1.25;;
64199;SDS011;50516;52.272;5.136;2024-03-02T03:07:33;2.17;;;1.30;;
64199;SDS011;50516;52.272;5.136;2024-03-02T03:10:02;1.73;;;1.27;;
64199;SDS011;50516;52.272;5.136;2024-03-02T03:12:29;1.65;;;1.00;;
64199;SDS011;50516;52.272;5.136;2024-03-02T03:14:55;1.65;;;0.88;;
64199;SDS011;50516;52.272;5.136;2024-03-02T03:17:23;1.83;;;1.17;;
64199;SDS011;50516;52.272;5.136;2024-03-02T03:19:49;3.33;;;1.30;;
64199;SDS011;50516;52.272;5.136;2024-03-02T03:22:15;4.80;;;1.83;;
64199;SDS011;50516;52.272;5.136;2024-03-02T03:24:40;2.00;;;1.27;;
64199;SDS011;50516;52.272;5.136;2024-03-02T03:27:06;1.75;;;1.23;;
64199;SDS011;50516;52.272;5.136;2024-03-02T03:29:31;3.40;;;1.38;;
64199;SDS011;50516;52.272;5.136;2024-03-02T03:31:56;1.17;;;0.70;;
64199;SDS011;50516;52.272;5.136;2024-03-02T03:34:22;0.95;;;0.93;;
64199;SDS011;50516;52.272;5.136;2024-03-02T03:36:47;4.43;;;1.20;;
64199;SDS011;50516;52.272;5.136;2024-03-02T03:39:12;1.00;;;0.85;;
64199;SDS011;50516;52.272;5.136;2024-03-02T03:41:38;1.80;;;1.17;;
64199;SDS011;50516;52.272;5.136;2024-03-02T03:44:03;2.38;;;0.98;;
64199;SDS011;50516;52.272;5.136;2024-03-02T03:46:29;2.45;;;0.85;;
64199;SDS011;50516;52.272;5.136;2024-03-02T03:48:54;1.55;;;0.98;;
64199;SDS011;50516;52.272;5.136;2024-03-02T03:51:20;3.85;;;1.02;;
64199;SDS011;50516;52.272;5.136;2024-03-02T03:53:47;4.28;;;1.40;;
64199;SDS011;50516;52.272;5.136;2024-03-02T03:56:13;0.57;;;0.57;;
64199;SDS011;50516;52.272;5.136;2024-03-02T03:58:38;1.45;;;1.02;;
64199;SDS011;50516;52.272;5.136;2024-03-02T04:01:03;4.30;;;1.00;;
64199;SDS011;50516;52.272;5.136;2024-03-02T04:03:28;1.17;;;0.90;;
64199;SDS011;50516;52.272;5.136;2024-03-02T04:05:55;0.57;;;0.57;;
64199;SDS011;50516;52.272;5.136;2024-03-02T04:08:20;2.58;;;1.50;;
64199;SDS011;50516;52.272;5.136;2024-03-02T04:10:46;1.42;;;0.95;;
64199;SDS011;50516;52.272;5.136;2024-03-02T04:13:11;1.05;;;0.70;;
64199;SDS011;50516;52.272;5.136;2024-03-02T04:15:37;1.77;;;0.85;;
64199;SDS011;50516;52.272;5.136;2024-03-02T04:18:02;1.95;;;1.25;;
64199;SDS011;50516;52.272;5.136;2024-03-02T04:20:27;1.40;;;1.10;;
64199;SDS011;50516;52.272;5.136;2024-03-02T04:22:53;1.35;;;1.00;;
64199;SDS011;50516;52.272;5.136;2024-03-02T04:25:18;3.10;;;1.40;;
64199;SDS011;50516;52.272;5.136;2024-03-02T04:27:44;1.90;;;1.05;;
64199;SDS011;50516;52.272;5.136;2024-03-02T04:30:10;1.65;;;0.77;;
64199;SDS011;50516;52.272;5.136;2024-03-02T04:32:36;3.92;;;1.13;;
64199;SDS011;50516;52.272;5.136;2024-03-02T04:35:01;1.65;;;1.00;;
64199;SDS011;50516;52.272;5.136;2024-03-02T04:37:27;1.95;;;0.85;;
64199;SDS011;50516;52.272;5.136;2024-03-02T04:39:52;2.72;;;1.30;;
64199;SDS011;50516;52.272;5.136;2024-03-02T04:42:17;2.47;;;1.40;;
64199;SDS011;50516;52.272;5.136;2024-03-02T04:44:43;3.33;;;1.35;;
64199;SDS011;50516;52.272;5.136;2024-03-02T04:47:08;1.38;;;0.82;;
64199;SDS011;50516;52.272;5.136;2024-03-02T04:49:33;1.73;;;1.00;;
64199;SDS011;50516;52.272;5.136;2024-03-02T04:51:58;0.80;;;0.80;;
64199;SDS011;50516;52.272;5.136;2024-03-02T04:54:24;1.48;;;1.13;;
64199;SDS011;50516;52.272;5.136;2024-03-02T04:56:49;1.73;;;1.00;;
64199;SDS011;50516;52.272;5.136;2024-03-02T04:59:17;3.65;;;1.58;;
64199;SDS011;50516;52.272;5.136;2024-03-02T05:01:43;4.72;;;1.33;;
64199;SDS011;50516;52.272;5.136;2024-03-02T05:04:09;2.03;;;1.13;;
64199;SDS011;50516;52.272;5.136;2024-03-02T05:06:38;4.13;;;1.23;;
64199;SDS011;50516;52.272;5.136;2024-03-02T05:09:07;4.20;;;1.48;;
64199;SDS011;50516;52.272;5.136;2024-03-02T05:11:35;2.50;;;1.33;;
64199;SDS011;50516;52.272;5.136;2024-03-02T05:14:03;1.80;;;0.95;;
64199;SDS011;50516;52.272;5.136;2024-03-02T05:16:29;3.42;;;0.95;;
64199;SDS011;50516;52.272;5.136;2024-03-02T05:18:59;2.00;;;1.13;;
64199;SDS011;50516;52.272;5.136;2024-03-02T05:21:24;1.17;;;1.00;;
64199;SDS011;50516;52.272;5.136;2024-03-02T05:23:49;2.30;;;1.17;;
64199;SDS011;50516;52.272;5.136;2024-03-02T05:26:15;2.47;;;1.38;;
64199;SDS011;50516;52.272;5.136;2024-03-02T05:28:40;1.83;;;1.10;;
64199;SDS011;50516;52.272;5.136;2024-03-02T05:31:06;3.13;;;0.95;;
64199;SDS011;50516;52.272;5.136;2024-03-02T05:33:31;2.75;;;1.45;;
64199;SDS011;50516;52.272;5.136;2024-03-02T05:35:58;2.67;;;1.27;;
64199;SDS011;50516;52.272;5.136;2024-03-02T05:38:23;1.73;;;1.33;;
64199;SDS011;50516;52.272;5.136;2024-03-02T05:40:48;0.75;;;0.68;;
64199;SDS011;50516;52.272;5.136;2024-03-02T05:43:14;4.22;;;0.93;;
64199;SDS011;50516;52.272;5.136;2024-03-02T05:45:39;1.90;;;1.13;;
64199;SDS011;50516;52.272;5.136;2024-03-02T05:48:05;3.13;;;1.20;;
64199;SDS011;50516;52.272;5.136;2024-03-02T05:50:32;3.90;;;1.40;;
64199;SDS011;50516;52.272;5.136;2024-03-02T05:52:57;4.00;;;1.23;;
64199;SDS011;50516;52.272;5.136;2024-03-02T05:55:23;0.63;;;0.63;;
64199;SDS011;50516;52.272;5.136;2024-03-02T05:57:49;1.70;;;1.20;;
64199;SDS011;50516;52.272;5.136;2024-03-02T06:00:27;3.30;;;1.20;;
64199;SDS011;50516;52.272;5.136;2024-03-02T06:02:52;2.80;;;1.38;;
64199;SDS011;50516;52.272;5.136;2024-03-02T06:05:18;1.85;;;1.00;;
64199;SDS011;50516;52.272;5.136;2024-03-02T06:07:43;5.38;;;1.70;;
64199;SDS011;50516;52.272;5.136;2024-03-02T06:10:09;3.40;;;0.90;;
64199;SDS011;50516;52.272;5.136;2024-03-02T06:12:34;2.72;;;0.95;;
64199;SDS011;50516;52.272;5.136;2024-03-02T06:15:00;1.15;;;0.95;;
64199;SDS011;50516;52.272;5.136;2024-03-02T06:17:25;1.83;;;1.15;;
64199;SDS011;50516;52.272;5.136;2024-03-02T06:19:50;2.83;;;1.00;;
64199;SDS011;50516;52.272;5.136;2024-03-02T06:22:16;2.05;;;0.90;;
64199;SDS011;50516;52.272;5.136;2024-03-02T06:24:41;2.90;;;1.08;;
64199;SDS011;50516;52.272;5.136;2024-03-02T06:27:07;3.08;;;1.13;;
64199;SDS011;50516;52.272;5.136;2024-03-02T06:29:32;0.95;;;0.95;;
64199;SDS011;50516;52.272;5.136;2024-03-02T06:31:58;1.67;;;1.25;;
64199;SDS011;50516;52.272;5.136;2024-03-02T06:34:24;2.35;;;1.27;;
64199;SDS011;50516;52.272;5.136;2024-03-02T06:36:49;1.60;;;0.98;;
64199;SDS011;50516;52.272;5.136;2024-03-02T06:39:14;2.75;;;1.20;;
64199;SDS011;50516;52.272;5.136;2024-03-02T06:41:40;1.50;;;1.00;;
64199;SDS011;50516;52.272;5.136;2024-03-02T06:44:05;3.60;;;1.52;;
64199;SDS011;50516;52.272;5.136;2024-03-02T06:46:31;4.20;;;1.45;;
64199;SDS011;50516;52.272;5.136;2024-03-02T06:48:57;2.72;;;1.30;;
64199;SDS011;50516;52.272;5.136;2024-03-02T06:51:22;3.78;;;0.93;;
64199;SDS011;50516;52.272;5.136;2024-03-02T06:53:48;4.53;;;2.13;;
64199;SDS011;50516;52.272;5.136;2024-03-02T06:56:13;2.95;;;0.85;;
64199;SDS011;50516;52.272;5.136;2024-03-02T06:58:38;1.98;;;1.10;;
64199;SDS011;50516;52.272;5.136;2024-03-02T07:01:04;2.88;;;1.10;;
64199;SDS011;50516;52.272;5.136;2024-03-02T07:03:29;2.97;;;1.23;;
64199;SDS011;50516;52.272;5.136;2024-03-02T07:05:55;2.42;;;1.30;;
64199;SDS011;50516;52.272;5.136;2024-03-02T07:08:20;3.28;;;1.17;;
64199;SDS011;50516;52.272;5.136;2024-03-02T07:10:45;2.33;;;1.52;;
64199;SDS011;50516;52.272;5.136;2024-03-02T07:13:11;3.67;;;1.08;;
64199;SDS011;50516;52.272;5.136;2024-03-02T07:15:38;5.82;;;1.60;;
64199;SDS011;50516;52.272;5.136;2024-03-02T07:18:12;4.07;;;1.65;;
64199;SDS011;50516;52.272;5.136;2024-03-02T07:20:37;3.13;;;1.48;;
64199;SDS011;50516;52.272;5.136;2024-03-02T07:23:03;6.55;;;1.85;;
64199;SDS011;50516;52.272;5.136;2024-03-02T07:25:29;5.20;;;1.73;;
64199;SDS011;50516;52.272;5.136;2024-03-02T07:27:54;4.55;;;1.30;;
64199;SDS011;50516;52.272;5.136;2024-03-02T07:30:20;4.63;;;1.50;;
64199;SDS011;50516;52.272;5.136;2024-03-02T07:32:46;2.97;;;1.67;;
64199;SDS011;50516;52.272;5.136;2024-03-02T07:35:14;5.93;;;1.95;;
64199;SDS011;50516;52.272;5.136;2024-03-02T07:37:43;5.70;;;1.90;;
64199;SDS011;50516;52.272;5.136;2024-03-02T07:40:09;3.95;;;1.67;;
64199;SDS011;50516;52.272;5.136;2024-03-02T07:42:38;2.55;;;1.20;;
64199;SDS011;50516;52.272;5.136;2024-03-02T07:45:04;2.40;;;1.25;;
64199;SDS011;50516;52.272;5.136;2024-03-02T07:47:31;1.58;;;0.88;;
64199;SDS011;50516;52.272;5.136;2024-03-02T07:49:56;7.60;;;1.50;;
64199;SDS011;50516;52.272;5.136;2024-03-02T07:52:22;6.90;;;1.25;;
64199;SDS011;50516;52.272;5.136;2024-03-02T07:54:47;3.38;;;1.38;;
64199;SDS011;50516;52.272;5.136;2024-03-02T07:57:12;5.40;;;2.00;;
64199;SDS011;50516;52.272;5.136;2024-03-02T07:59:38;7.05;;;1.60;;
64199;SDS011;50516;52.272;5.136;2024-03-02T08:02:03;4.78;;;1.55;;
64199;SDS011;50516;52.272;5.136;2024-03-02T08:04:30;3.13;;;1.13;;
64199;SDS011;50516;52.272;5.136;2024-03-02T08:06:55;4.65;;;1.85;;
64199;SDS011;50516;52.272;5.136;2024-03-02T08:09:20;4.07;;;1.35;;
64199;SDS011;50516;52.272;5.136;2024-03-02T08:11:46;5.03;;;1.60;;
64199;SDS011;50516;52.272;5.136;2024-03-02T08:14:11;4.95;;;1.52;;
64199;SDS011;50516;52.272;5.136;2024-03-02T08:16:36;2.67;;;1.13;;
64199;SDS011;50516;52.272;5.136;2024-03-02T08:19:02;4.22;;;1.73;;
64199;SDS011;50516;52.272;5.136;2024-03-02T08:21:28;3.67;;;1.45;;
64199;SDS011;50516;52.272;5.136;2024-03-02T08:23:55;3.15;;;1.35;;
64199;SDS011;50516;52.272;5.136;2024-03-02T08:26:22;4.28;;;1.15;;
64199;SDS011;50516;52.272;5.136;2024-03-02T08:28:47;4.03;;;1.42;;
64199;SDS011;50516;52.272;5.136;2024-03-02T08:31:13;6.65;;;1.58;;
64199;SDS011;50516;52.272;5.136;2024-03-02T08:33:38;3.75;;;1.52;;
64199;SDS011;50516;52.272;5.136;2024-03-02T08:36:03;3.95;;;1.38;;
64199;SDS011;50516;52.272;5.136;2024-03-02T08:38:30;5.07;;;1.58;;
64199;SDS011;50516;52.272;5.136;2024-03-02T08:40:55;4.53;;;1.55;;
64199;SDS011;50516;52.272;5.136;2024-03-02T08:43:21;5.38;;;1.40;;
64199;SDS011;50516;52.272;5.136;2024-03-02T08:45:47;3.55;;;1.23;;
64199;SDS011;50516;52.272;5.136;2024-03-02T08:48:13;5.85;;;1.70;;
64199;SDS011;50516;52.272;5.136;2024-03-02T08:50:38;4.53;;;1.60;;
64199;SDS011;50516;52.272;5.136;2024-03-02T08:53:03;3.60;;;1.23;;
64199;SDS011;50516;52.272;5.136;2024-03-02T08:55:29;5.57;;;1.30;;
64199;SDS011;50516;52.272;5.136;2024-03-02T08:57:55;9.68;;;1.48;;
64199;SDS011;50516;52.272;5.136;2024-03-02T09:00:20;10.13;;;2.17;;
64199;SDS011;50516;52.272;5.136;2024-03-02T09:02:46;6.53;;;1.77;;
64199;SDS011;50516;52.272;5.136;2024-03-02T09:05:11;9.15;;;1.63;;
64199;SDS011;50516;52.272;5.136;2024-03-02T09:07:37;5.57;;;1.70;;
64199;SDS011;50516;52.272;5.136;2024-03-02T09:10:03;8.02;;;1.63;;
64199;SDS011;50516;52.272;5.136;2024-03-02T09:12:29;6.38;;;1.83;;
64199;SDS011;50516;52.272;5.136;2024-03-02T09:14:55;4.25;;;1.50;;
64199;SDS011;50516;52.272;5.136;2024-03-02T09:17:20;7.20;;;1.83;;
64199;SDS011;50516;52.272;5.136;2024-03-02T09:19:46;4.57;;;1.50;;
64199;SDS011;50516;52.272;5.136;2024-03-02T09:22:12;7.07;;;1.33;;
64199;SDS011;50516;52.272;5.136;2024-03-02T09:24:38;14.15;;;1.92;;
64199;SDS011;50516;52.272;5.136;2024-03-02T09:27:03;9.18;;;2.42;;
64199;SDS011;50516;52.272;5.136;2024-03-02T09:29:29;7.72;;;1.42;;
64199;SDS011;50516;52.272;5.136;2024-03-02T09:31:55;6.90;;;1.75;;
64199;SDS011;50516;52.272;5.136;2024-03-02T09:34:20;6.32;;;1.63;;
64199;SDS011;50516;52.272;5.136;2024-03-02T09:36:46;5.05;;;1.63;;
64199;SDS011;50516;52.272;5.136;2024-03-02T09:39:11;5.40;;;1.42;;
64199;SDS011;50516;52.272;5.136;2024-03-02T09:41:37;7.03;;;1.88;;
64199;SDS011;50516;52.272;5.136;2024-03-02T09:44:03;5.03;;;1.50;;
64199;SDS011;50516;52.272;5.136;2024-03-02T09:46:29;8.32;;;2.20;;
64199;SDS011;50516;52.272;5.136;2024-03-02T09:48:55;6.47;;;1.70;;
64199;SDS011;50516;52.272;5.136;2024-03-02T09:51:20;5.55;;;1.55;;
64199;SDS011;50516;52.272;5.136;2024-03-02T09:53:46;4.60;;;1.85;;
64199;SDS011;50516;52.272;5.136;2024-03-02T09:56:12;4.85;;;1.35;;
64199;SDS011;50516;52.272;5.136;2024-03-02T09:58:41;4.78;;;1.73;;
64199;SDS011;50516;52.272;5.136;2024-03-02T10:01:06;7.15;;;1.80;;
64199;SDS011;50516;52.272;5.136;2024-03-02T10:03:32;6.07;;;1.88;;
64199;SDS011;50516;52.272;5.136;2024-03-02T10:06:44;6.03;;;1.70;;
64199;SDS011;50516;52.272;5.136;2024-03-02T10:08:48;10.32;;;1.88;;
64199;SDS011;50516;52.272;5.136;2024-03-02T10:11:30;7.45;;;1.83;;
64199;SDS011;50516;52.272;5.136;2024-03-02T10:16:37;6.40;;;1.70;;
64199;SDS011;50516;52.272;5.136;2024-03-02T10:19:22;7.38;;;2.72;;
64199;SDS011;50516;52.272;5.136;2024-03-02T10:21:49;6.40;;;2.08;;
64199;SDS011;50516;52.272;5.136;2024-03-02T10:24:18;6.88;;;2.03;;
64199;SDS011;50516;52.272;5.136;2024-03-02T10:26:45;5.50;;;1.60;;
64199;SDS011;50516;52.272;5.136;2024-03-02T10:29:11;10.38;;;2.72;;
64199;SDS011;50516;52.272;5.136;2024-03-02T10:31:41;5.45;;;2.00;;
64199;SDS011;50516;52.272;5.136;2024-03-02T10:34:08;7.43;;;2.00;;
64199;SDS011;50516;52.272;5.136;2024-03-02T10:36:34;10.65;;;2.25;;
64199;SDS011;50516;52.272;5.136;2024-03-02T10:39:04;9.13;;;2.70;;
64199;SDS011;50516;52.272;5.136;2024-03-02T10:41:37;7.20;;;2.67;;
64199;SDS011;50516;52.272;5.136;2024-03-02T10:44:03;15.80;;;3.33;;
64199;SDS011;50516;52.272;5.136;2024-03-02T10:46:31;4.05;;;1.98;;
64199;SDS011;50516;52.272;5.136;2024-03-02T10:49:02;9.20;;;2.30;;
64199;SDS011;50516;52.272;5.136;2024-03-02T10:51:29;6.50;;;1.90;;
64199;SDS011;50516;52.272;5.136;2024-03-02T10:54:01;4.88;;;2.08;;
64199;SDS011;50516;52.272;5.136;2024-03-02T10:56:29;8.77;;;2.17;;
64199;SDS011;50516;52.272;5.136;2024-03-02T10:59:17;14.85;;;3.60;;
64199;SDS011;50516;52.272;5.136;2024-03-02T11:01:50;6.57;;;2.08;;
64199;SDS011;50516;52.272;5.136;2024-03-02T11:04:16;9.70;;;2.33;;
64199;SDS011;50516;52.272;5.136;2024-03-02T11:06:48;7.95;;;1.95;;
64199;SDS011;50516;52.272;5.136;2024-03-02T11:09:14;5.03;;;2.03;;
64199;SDS011;50516;52.272;5.136;2024-03-02T11:11:43;4.93;;;1.60;;
64199;SDS011;50516;52.272;5.136;2024-03-02T11:14:13;5.78;;;2.13;;
64199;SDS011;50516;52.272;5.136;2024-03-02T11:16:41;6.47;;;1.80;;
64199;SDS011;50516;52.272;5.136;2024-03-02T11:19:09;4.70;;;2.08;;
64199;SDS011;50516;52.272;5.136;2024-03-02T11:21:36;6.60;;;1.58;;
64199;SDS011;50516;52.272;5.136;2024-03-02T11:26:46;5.88;;;1.92;;
64199;SDS011;50516;52.272;5.136;2024-03-02T11:29:42;4.68;;;1.55;;
64199;SDS011;50516;52.272;5.136;2024-03-02T11:32:06;12.13;;;2.70;;
64199;SDS011;50516;52.272;5.136;2024-03-02T11:34:39;5.78;;;1.90;;
64199;SDS011;50516;52.272;5.136;2024-03-02T11:37:10;6.97;;;2.28;;
64199;SDS011;50516;52.272;5.136;2024-03-02T11:39:36;13.88;;;2.28;;
64199;SDS011;50516;52.272;5.136;2024-03-02T11:42:05;7.75;;;2.45;;
64199;SDS011;50516;52.272;5.136;2024-03-02T11:44:32;5.72;;;1.75;;
64199;SDS011;50516;52.272;5.136;2024-03-02T11:46:58;6.93;;;2.13;;
64199;SDS011;50516;52.272;5.136;2024-03-02T11:49:40;5.72;;;1.55;;
64199;SDS011;50516;52.272;5.136;2024-03-02T11:52:08;4.05;;;1.83;;
64199;SDS011;50516;52.272;5.136;2024-03-02T11:54:35;6.95;;;2.28;;
64199;SDS011;50516;52.272;5.136;2024-03-02T11:57:06;5.57;;;1.75;;
64199;SDS011;50516;52.272;5.136;2024-03-02T11:59:32;6.85;;;1.85;;
64199;SDS011;50516;52.272;5.136;2024-03-02T12:01:58;5.15;;;1.92;;
64199;SDS011;50516;52.272;5.136;2024-03-02T12:04:24;2.35;;;1.45;;
64199;SDS011;50516;52.272;5.136;2024-03-02T12:06:59;4.43;;;1.65;;
64199;SDS011;50516;52.272;5.136;2024-03-02T12:09:26;6.87;;;2.07;;
64199;SDS011;50516;52.272;5.136;2024-03-02T12:16:55;6.53;;;2.25;;
64199;SDS011;50516;52.272;5.136;2024-03-02T12:19:23;6.38;;;1.77;;
64199;SDS011;50516;52.272;5.136;2024-03-02T12:21:49;3.17;;;1.48;;
64199;SDS011;50516;52.272;5.136;2024-03-02T12:24:15;7.15;;;2.15;;
64199;SDS011;50516;52.272;5.136;2024-03-02T12:26:40;4.68;;;1.70;;
64199;SDS011;50516;52.272;5.136;2024-03-02T12:29:06;6.88;;;1.40;;
64199;SDS011;50516;52.272;5.136;2024-03-02T12:31:32;4.25;;;1.60;;
64199;SDS011;50516;52.272;5.136;2024-03-02T12:33:57;4.35;;;1.65;;
64199;SDS011;50516;52.272;5.136;2024-03-02T12:36:23;4.65;;;1.90;;
64199;SDS011;50516;52.272;5.136;2024-03-02T12:38:48;7.35;;;2.10;;
64199;SDS011;50516;52.272;5.136;2024-03-02T12:41:18;3.90;;;1.83;;
64199;SDS011;50516;52.272;5.136;2024-03-02T12:43:43;4.38;;;1.83;;
64199;SDS011;50516;52.272;5.136;2024-03-02T12:46:08;6.43;;;2.00;;
64199;SDS011;50516;52.272;5.136;2024-03-02T12:48:34;4.38;;;1.90;;
64199;SDS011;50516;52.272;5.136;2024-03-02T12:51:00;5.18;;;2.35;;
64199;SDS011;50516;52.272;5.136;2024-03-02T12:53:26;6.50;;;1.83;;
64199;SDS011;50516;52.272;5.136;2024-03-02T12:55:51;8.98;;;2.30;;
64199;SDS011;50516;52.272;5.136;2024-03-02T12:58:18;6.47;;;2.22;;
64199;SDS011;50516;52.272;5.136;2024-03-02T13:00:47;2.85;;;1.67;;
64199;SDS011;50516;52.272;5.136;2024-03-02T13:03:13;5.03;;;1.85;;
64199;SDS011;50516;52.272;5.136;2024-03-02T13:05:39;3.90;;;1.73;;
64199;SDS011;50516;52.272;5.136;2024-03-02T13:08:05;4.90;;;2.15;;
64199;SDS011;50516;52.272;5.136;2024-03-02T13:10:32;7.38;;;2.45;;
64199;SDS011;50516;52.272;5.136;2024-03-02T13:12:58;6.45;;;2.47;;
64199;SDS011;50516;52.272;5.136;2024-03-02T13:15:23;4.70;;;1.73;;
64199;SDS011;50516;52.272;5.136;2024-03-02T13:17:49;3.90;;;1.90;;
64199;SDS011;50516;52.272;5.136;2024-03-02T13:20:16;6.00;;;1.92;;
64199;SDS011;50516;52.272;5.136;2024-03-02T13:22:43;4.47;;;1.88;;
64199;SDS011;50516;52.272;5.136;2024-03-02T13:25:09;5.10;;;2.97;;
64199;SDS011;50516;52.272;5.136;2024-03-02T13:27:35;4.93;;;1.25;;
64199;SDS011;50516;52.272;5.136;2024-03-02T13:30:02;4.82;;;1.85;;
64199;SDS011;50516;52.272;5.136;2024-03-02T13:32:27;4.70;;;1.75;;
64199;SDS011;50516;52.272;5.136;2024-03-02T13:34:53;4.60;;;2.00;;
64199;SDS011;50516;52.272;5.136;2024-03-02T13:37:19;5.90;;;1.65;;
64199;SDS011;50516;52.272;5.136;2024-03-02T13:39:45;4.65;;;1.42;;
64199;SDS011;50516;52.272;5.136;2024-03-02T13:42:11;9.38;;;2.38;;
64199;SDS011;50516;52.272;5.136;2024-03-02T13:44:39;6.40;;;1.80;;
64199;SDS011;50516;52.272;5.136;2024-03-02T13:47:05;4.53;;;1.75;;
64199;SDS011;50516;52.272;5.136;2024-03-02T13:49:31;4.57;;;1.80;;
64199;SDS011;50516;52.272;5.136;2024-03-02T13:52:02;6.53;;;2.30;;
64199;SDS011;50516;52.272;5.136;2024-03-02T13:54:30;5.43;;;2.00;;
64199;SDS011;50516;52.272;5.136;2024-03-02T13:56:55;7.63;;;2.80;;
64199;SDS011;50516;52.272;5.136;2024-03-02T13:59:23;5.80;;;1.70;;
64199;SDS011;50516;52.272;5.136;2024-03-02T14:01:49;4.03;;;2.22;;
64199;SDS011;50516;52.272;5.136;2024-03-02T14:04:14;4.00;;;1.90;;
64199;SDS011;50516;52.272;5.136;2024-03-02T14:06:40;4.57;;;2.03;;
64199;SDS011;50516;52.272;5.136;2024-03-02T14:09:08;6.65;;;1.83;;
64199;SDS011;50516;52.272;5.136;2024-03-02T14:11:33;3.80;;;1.80;;
64199;SDS011;50516;52.272;5.136;2024-03-02T14:13:59;5.03;;;1.80;;
64199;SDS011;50516;52.272;5.136;2024-03-02T14:16:24;4.90;;;1.90;;
64199;SDS011;50516;52.272;5.136;2024-03-02T14:18:49;3.08;;;2.00;;
64199;SDS011;50516;52.272;5.136;2024-03-02T14:21:15;7.90;;;1.95;;
64199;SDS011;50516;52.272;5.136;2024-03-02T14:23:40;4.22;;;1.95;;
64199;SDS011;50516;52.272;5.136;2024-03-02T14:26:05;4.78;;;1.73;;
64199;SDS011;50516;52.272;5.136;2024-03-02T14:28:31;5.68;;;1.95;;
64199;SDS011;50516;52.272;5.136;2024-03-02T14:30:56;7.82;;;2.40;;
64199;SDS011;50516;52.272;5.136;2024-03-02T14:33:21;5.95;;;2.15;;
64199;SDS011;50516;52.272;5.136;2024-03-02T14:35:46;6.03;;;1.70;;
64199;SDS011;50516;52.272;5.136;2024-03-02T14:38:12;6.40;;;2.40;;
64199;SDS011;50516;52.272;5.136;2024-03-02T14:40:38;8.68;;;2.33;;
64199;SDS011;50516;52.272;5.136;2024-03-02T14:43:03;7.20;;;2.13;;
64199;SDS011;50516;52.272;5.136;2024-03-02T14:45:29;3.88;;;1.90;;
64199;SDS011;50516;52.272;5.136;2024-03-02T14:47:54;7.28;;;2.10;;
64199;SDS011;50516;52.272;5.136;2024-03-02T14:50:20;5.03;;;2.00;;
64199;SDS011;50516;52.272;5.136;2024-03-02T14:52:46;5.72;;;2.40;;
64199;SDS011;50516;52.272;5.136;2024-03-02T14:55:11;4.13;;;1.90;;
64199;SDS011;50516;52.272;5.136;2024-03-02T14:57:36;8.05;;;2.70;;
64199;SDS011;50516;52.272;5.136;2024-03-02T15:00:02;5.30;;;1.90;;
64199;SDS011;50516;52.272;5.136;2024-03-02T15:02:28;6.07;;;1.80;;
64199;SDS011;50516;52.272;5.136;2024-03-02T15:04:54;8.05;;;1.98;;
64199;SDS011;50516;52.272;5.136;2024-03-02T15:07:19;6.68;;;2.50;;